sensor_id;sensor_type;location;lat;lon;timestamp;temperature;humidity
57652;DHT22;43480;53.116;6.734;2024-02-15T00:00:10;11.40;99.90
57652;DHT22;43480;53.116;6.734;2024-02-15T00:02:36;11.40;99.90
57652;DHT22;43480;53.116;6.734;2024-02-15T00:05:02;11.40;99.90
57652;DHT22;43480;53.116;6.734;2024-02-15T00:07:28;11.40;99.90
57652;DHT22;43480;53.116;6.734;2024-02-15T00:09:53;11.40;99.90
57652;DHT22;43480;53.116;6.734;2024-02-15T00:12:19;11.30;99.90
57652;DHT22;43480;53.116;6.734;2024-02-15T00:14:45;11.30;99.90
57652;DHT22;43480;53.116;6.734;2024-02-15T00:17:11;11.40;99.90
57652;DHT22;43480;53.116;6.734;2024-02-15T00:19:37;11.40;99.90
57652;DHT22;43480;53.116;6.734;2024-02-15T00:22:05;11.40;99.90
57652;DHT22;43480;53.116;6.734;2024-02-15T00:24:31;11.40;99.90
57652;DHT22;43480;53.116;6.734;2024-02-15T00:26:57;11.40;99.90
57652;DHT22;43480;53.116;6.734;2024-02-15T00:29:23;11.40;99.90
57652;DHT22;43480;53.116;6.734;2024-02-15T00:31:50;11.40;99.90
57652;DHT22;43480;53.116;6.734;2024-02-15T00:34:16;11.40;99.90
57652;DHT22;43480;53.116;6.734;2024-02-15T00:36:42;11.40;99.90
57652;DHT22;43480;53.116;6.734;2024-02-15T00:39:09;11.40;99.90
57652;DHT22;43480;53.116;6.734;2024-02-15T00:41:37;11.40;99.90
57652;DHT22;43480;53.116;6.734;2024-02-15T00:44:09;11.40;99.90
57652;DHT22;43480;53.116;6.734;2024-02-15T00:46:38;11.40;99.90
57652;DHT22;43480;53.116;6.734;2024-02-15T00:49:04;11.40;99.90
57652;DHT22;43480;53.116;6.734;2024-02-15T00:51:34;11.40;99.90
57652;DHT22;43480;53.116;6.734;2024-02-15T00:54:01;11.40;99.90
57652;DHT22;43480;53.116;6.734;2024-02-15T00:56:27;11.40;99.90
57652;DHT22;43480;53.116;6.734;2024-02-15T00:58:55;11.40;99.90
57652;DHT22;43480;53.116;6.734;2024-02-15T01:01:21;11.40;99.90
57652;DHT22;43480;53.116;6.734;2024-02-15T01:03:47;11.40;99.90
57652;DHT22;43480;53.116;6.734;2024-02-15T01:06:13;11.40;99.90
57652;DHT22;43480;53.116;6.734;2024-02-15T01:08:38;11.40;99.90
57652;DHT22;43480;53.116;6.734;2024-02-15T01:11:04;11.40;99.90
57652;DHT22;43480;53.116;6.734;2024-02-15T01:13:31;11.40;99.90
57652;DHT22;43480;53.116;6.734;2024-02-15T01:15:57;11.40;99.90
57652;DHT22;43480;53.116;6.734;2024-02-15T01:18:23;11.40;99.90
57652;DHT22;43480;53.116;6.734;2024-02-15T01:20:49;11.40;99.90
57652;DHT22;43480;53.116;6.734;2024-02-15T01:23:14;11.40;99.90
57652;DHT22;43480;53.116;6.734;2024-02-15T01:25:40;11.40;99.90
57652;DHT22;43480;53.116;6.734;2024-02-15T01:28:06;11.40;99.90
57652;DHT22;43480;53.116;6.734;2024-02-15T01:30:32;11.40;99.90
57652;DHT22;43480;53.116;6.734;2024-02-15T01:32:58;11.40;99.90
57652;DHT22;43480;53.116;6.734;2024-02-15T01:35:24;11.40;99.90
57652;DHT22;43480;53.116;6.734;2024-02-15T01:37:50;11.40;99.90
57652;DHT22;43480;53.116;6.734;2024-02-15T01:40:16;11.40;99.90
57652;DHT22;43480;53.116;6.734;2024-02-15T01:42:44;11.40;99.90
57652;DHT22;43480;53.116;6.734;2024-02-15T01:45:10;11.40;99.90
57652;DHT22;43480;53.116;6.734;2024-02-15T01:47:38;11.40;99.90
57652;DHT22;43480;53.116;6.734;2024-02-15T01:50:06;11.40;99.90
57652;DHT22;43480;53.116;6.734;2024-02-15T01:52:33;11.40;99.90
57652;DHT22;43480;53.116;6.734;2024-02-15T01:54:59;11.40;99.90
57652;DHT22;43480;53.116;6.734;2024-02-15T01:57:26;11.40;99.90
57652;DHT22;43480;53.116;6.734;2024-02-15T01:59:52;11.50;99.90
57652;DHT22;43480;53.116;6.734;2024-02-15T02:02:20;11.50;99.90
57652;DHT22;43480;53.116;6.734;2024-02-15T02:04:46;11.50;99.90
57652;DHT22;43480;53.116;6.734;2024-02-15T02:07:11;11.50;99.90
57652;DHT22;43480;53.116;6.734;2024-02-15T02:09:37;11.50;99.90
57652;DHT22;43480;53.116;6.734;2024-02-15T02:12:03;11.50;99.90
57652;DHT22;43480;53.116;6.734;2024-02-15T02:14:30;11.50;99.90
57652;DHT22;43480;53.116;6.734;2024-02-15T02:16:55;11.50;99.90
57652;DHT22;43480;53.116;6.734;2024-02-15T02:19:21;11.50;99.90
57652;DHT22;43480;53.116;6.734;2024-02-15T02:21:46;11.50;99.90
57652;DHT22;43480;53.116;6.734;2024-02-15T02:24:22;11.50;99.90
57652;DHT22;43480;53.116;6.734;2024-02-15T02:26:48;11.50;99.90
57652;DHT22;43480;53.116;6.734;2024-02-15T02:29:15;11.50;99.90
57652;DHT22;43480;53.116;6.734;2024-02-15T02:31:41;11.50;99.90
57652;DHT22;43480;53.116;6.734;2024-02-15T02:34:08;11.50;99.90
57652;DHT22;43480;53.116;6.734;2024-02-15T02:36:34;11.50;99.90
57652;DHT22;43480;53.116;6.734;2024-02-15T02:39:00;11.60;99.90
57652;DHT22;43480;53.116;6.734;2024-02-15T02:41:27;11.60;99.90
57652;DHT22;43480;53.116;6.734;2024-02-15T02:43:57;11.60;99.90
57652;DHT22;43480;53.116;6.734;2024-02-15T02:46:23;11.60;99.90
57652;DHT22;43480;53.116;6.734;2024-02-15T02:48:49;11.50;99.90
57652;DHT22;43480;53.116;6.734;2024-02-15T02:51:15;11.50;99.90
57652;DHT22;43480;53.116;6.734;2024-02-15T02:53:41;11.60;99.90
57652;DHT22;43480;53.116;6.734;2024-02-15T02:56:06;11.60;99.90
57652;DHT22;43480;53.116;6.734;2024-02-15T02:58:34;11.50;99.90
57652;DHT22;43480;53.116;6.734;2024-02-15T03:01:00;11.60;99.90
57652;DHT22;43480;53.116;6.734;2024-02-15T03:03:26;11.60;99.90
57652;DHT22;43480;53.116;6.734;2024-02-15T03:05:52;11.60;99.90
57652;DHT22;43480;53.116;6.734;2024-02-15T03:08:19;11.60;99.90
57652;DHT22;43480;53.116;6.734;2024-02-15T03:10:46;11.60;99.90
57652;DHT22;43480;53.116;6.734;2024-02-15T03:13:11;11.60;99.90
57652;DHT22;43480;53.116;6.734;2024-02-15T03:15:37;11.60;99.90
57652;DHT22;43480;53.116;6.734;2024-02-15T03:18:03;11.60;99.90
57652;DHT22;43480;53.116;6.734;2024-02-15T03:20:38;11.60;99.90
57652;DHT22;43480;53.116;6.734;2024-02-15T03:23:04;11.60;99.90
57652;DHT22;43480;53.116;6.734;2024-02-15T03:25:30;11.60;99.90
57652;DHT22;43480;53.116;6.734;2024-02-15T03:27:57;11.50;99.90
57652;DHT22;43480;53.116;6.734;2024-02-15T03:30:25;11.50;99.90
57652;DHT22;43480;53.116;6.734;2024-02-15T03:32:51;11.50;99.90
57652;DHT22;43480;53.116;6.734;2024-02-15T03:35:20;11.50;99.90
57652;DHT22;43480;53.116;6.734;2024-02-15T03:37:48;11.50;99.90
57652;DHT22;43480;53.116;6.734;2024-02-15T03:40:17;11.50;99.90
57652;DHT22;43480;53.116;6.734;2024-02-15T03:42:43;11.50;99.90
57652;DHT22;43480;53.116;6.734;2024-02-15T03:45:09;11.50;99.90
57652;DHT22;43480;53.116;6.734;2024-02-15T03:47:36;11.50;99.90
57652;DHT22;43480;53.116;6.734;2024-02-15T03:50:06;11.50;99.90
57652;DHT22;43480;53.116;6.734;2024-02-15T03:52:33;11.50;99.90
57652;DHT22;43480;53.116;6.734;2024-02-15T03:54:59;11.50;99.90
57652;DHT22;43480;53.116;6.734;2024-02-15T03:57:28;11.50;99.90
57652;DHT22;43480;53.116;6.734;2024-02-15T03:59:54;11.50;99.90
57652;DHT22;43480;53.116;6.734;2024-02-15T04:02:23;11.50;99.90
57652;DHT22;43480;53.116;6.734;2024-02-15T04:04:55;11.50;99.90
57652;DHT22;43480;53.116;6.734;2024-02-15T04:07:22;11.50;99.90
57652;DHT22;43480;53.116;6.734;2024-02-15T04:09:48;11.50;99.90
57652;DHT22;43480;53.116;6.734;2024-02-15T04:12:14;11.50;99.90
57652;DHT22;43480;53.116;6.734;2024-02-15T04:14:40;11.50;99.90
57652;DHT22;43480;53.116;6.734;2024-02-15T04:17:07;11.50;99.90
57652;DHT22;43480;53.116;6.734;2024-02-15T04:19:33;11.40;99.90
57652;DHT22;43480;53.116;6.734;2024-02-15T04:21:59;11.50;99.90
57652;DHT22;43480;53.116;6.734;2024-02-15T04:24:26;11.40;99.90
57652;DHT22;43480;53.116;6.734;2024-02-15T04:26:52;11.40;99.90
57652;DHT22;43480;53.116;6.734;2024-02-15T04:29:18;11.40;99.90
57652;DHT22;43480;53.116;6.734;2024-02-15T04:31:46;11.40;99.90
57652;DHT22;43480;53.116;6.734;2024-02-15T04:34:17;11.40;99.90
57652;DHT22;43480;53.116;6.734;2024-02-15T04:36:47;11.40;99.90
57652;DHT22;43480;53.116;6.734;2024-02-15T04:39:21;11.50;99.90
57652;DHT22;43480;53.116;6.734;2024-02-15T04:41:51;11.50;99.90
57652;DHT22;43480;53.116;6.734;2024-02-15T04:44:17;11.50;99.90
57652;DHT22;43480;53.116;6.734;2024-02-15T04:46:46;11.50;99.90
57652;DHT22;43480;53.116;6.734;2024-02-15T04:49:12;11.50;99.90
57652;DHT22;43480;53.116;6.734;2024-02-15T04:51:38;11.50;99.90
57652;DHT22;43480;53.116;6.734;2024-02-15T04:54:06;11.60;99.90
57652;DHT22;43480;53.116;6.734;2024-02-15T04:56:33;11.60;99.90
57652;DHT22;43480;53.116;6.734;2024-02-15T04:58:59;11.60;99.90
57652;DHT22;43480;53.116;6.734;2024-02-15T05:01:24;11.60;99.90
57652;DHT22;43480;53.116;6.734;2024-02-15T05:03:50;11.60;99.90
57652;DHT22;43480;53.116;6.734;2024-02-15T05:06:16;11.60;99.90
57652;DHT22;43480;53.116;6.734;2024-02-15T05:08:41;11.60;99.90
57652;DHT22;43480;53.116;6.734;2024-02-15T05:11:10;11.60;99.90
57652;DHT22;43480;53.116;6.734;2024-02-15T05:13:48;11.60;99.90
57652;DHT22;43480;53.116;6.734;2024-02-15T05:16:17;11.60;99.90
57652;DHT22;43480;53.116;6.734;2024-02-15T05:18:43;11.60;99.90
57652;DHT22;43480;53.116;6.734;2024-02-15T05:21:08;11.60;99.90
57652;DHT22;43480;53.116;6.734;2024-02-15T05:23:37;11.70;99.90
57652;DHT22;43480;53.116;6.734;2024-02-15T05:26:06;11.70;99.90
57652;DHT22;43480;53.116;6.734;2024-02-15T05:28:32;11.70;99.90
57652;DHT22;43480;53.116;6.734;2024-02-15T05:31:17;11.70;99.90
57652;DHT22;43480;53.116;6.734;2024-02-15T05:33:48;11.70;99.90
57652;DHT22;43480;53.116;6.734;2024-02-15T05:36:15;11.70;99.90
57652;DHT22;43480;53.116;6.734;2024-02-15T05:38:41;11.70;99.90
57652;DHT22;43480;53.116;6.734;2024-02-15T05:41:07;11.60;99.90
57652;DHT22;43480;53.116;6.734;2024-02-15T05:43:36;11.70;99.90
57652;DHT22;43480;53.116;6.734;2024-02-15T05:46:05;11.70;99.90
57652;DHT22;43480;53.116;6.734;2024-02-15T05:48:32;11.60;99.90
57652;DHT22;43480;53.116;6.734;2024-02-15T05:51:01;11.70;99.90
57652;DHT22;43480;53.116;6.734;2024-02-15T05:53:26;11.70;99.90
57652;DHT22;43480;53.116;6.734;2024-02-15T05:55:53;11.70;99.90
57652;DHT22;43480;53.116;6.734;2024-02-15T05:58:18;11.60;99.90
57652;DHT22;43480;53.116;6.734;2024-02-15T06:00:44;11.60;99.90
57652;DHT22;43480;53.116;6.734;2024-02-15T06:03:13;11.70;99.90
57652;DHT22;43480;53.116;6.734;2024-02-15T06:05:39;11.70;99.90
57652;DHT22;43480;53.116;6.734;2024-02-15T06:08:05;11.70;99.90
57652;DHT22;43480;53.116;6.734;2024-02-15T06:10:31;11.70;99.90
57652;DHT22;43480;53.116;6.734;2024-02-15T06:12:57;11.70;99.90
57652;DHT22;43480;53.116;6.734;2024-02-15T06:15:25;11.70;99.90
57652;DHT22;43480;53.116;6.734;2024-02-15T06:17:51;11.70;99.90
57652;DHT22;43480;53.116;6.734;2024-02-15T06:20:16;11.70;99.90
57652;DHT22;43480;53.116;6.734;2024-02-15T06:22:47;11.80;99.90
57652;DHT22;43480;53.116;6.734;2024-02-15T06:25:13;11.70;99.90
57652;DHT22;43480;53.116;6.734;2024-02-15T06:27:40;11.70;99.90
57652;DHT22;43480;53.116;6.734;2024-02-15T06:30:09;11.80;99.90
57652;DHT22;43480;53.116;6.734;2024-02-15T06:32:53;11.70;99.90
57652;DHT22;43480;53.116;6.734;2024-02-15T06:35:38;11.70;99.90
57652;DHT22;43480;53.116;6.734;2024-02-15T06:38:23;11.70;99.90
57652;DHT22;43480;53.116;6.734;2024-02-15T06:41:08;11.70;99.90
57652;DHT22;43480;53.116;6.734;2024-02-15T06:43:35;11.80;99.90
57652;DHT22;43480;53.116;6.734;2024-02-15T06:46:01;11.80;99.90
57652;DHT22;43480;53.116;6.734;2024-02-15T06:48:28;11.80;99.90
57652;DHT22;43480;53.116;6.734;2024-02-15T06:50:54;11.80;99.90
57652;DHT22;43480;53.116;6.734;2024-02-15T06:53:20;11.70;99.90
57652;DHT22;43480;53.116;6.734;2024-02-15T06:55:46;11.80;99.90
57652;DHT22;43480;53.116;6.734;2024-02-15T06:58:16;11.80;99.90
57652;DHT22;43480;53.116;6.734;2024-02-15T07:00:45;11.70;99.90
57652;DHT22;43480;53.116;6.734;2024-02-15T07:03:11;11.80;99.90
57652;DHT22;43480;53.116;6.734;2024-02-15T07:05:37;11.80;99.90
57652;DHT22;43480;53.116;6.734;2024-02-15T07:08:09;11.80;99.90
57652;DHT22;43480;53.116;6.734;2024-02-15T07:10:39;11.80;99.90
57652;DHT22;43480;53.116;6.734;2024-02-15T07:13:05;11.80;99.90
57652;DHT22;43480;53.116;6.734;2024-02-15T07:15:33;11.70;99.90
57652;DHT22;43480;53.116;6.734;2024-02-15T07:18:07;11.70;99.90
57652;DHT22;43480;53.116;6.734;2024-02-15T07:20:33;11.80;99.90
57652;DHT22;43480;53.116;6.734;2024-02-15T07:22:59;11.80;99.90
57652;DHT22;43480;53.116;6.734;2024-02-15T07:25:25;11.80;99.90
57652;DHT22;43480;53.116;6.734;2024-02-15T07:27:51;11.80;99.90
57652;DHT22;43480;53.116;6.734;2024-02-15T07:30:18;11.80;99.90
57652;DHT22;43480;53.116;6.734;2024-02-15T07:32:44;11.80;99.90
57652;DHT22;43480;53.116;6.734;2024-02-15T07:35:10;11.80;99.90
57652;DHT22;43480;53.116;6.734;2024-02-15T07:37:36;11.80;99.90
57652;DHT22;43480;53.116;6.734;2024-02-15T07:40:02;11.80;99.90
57652;DHT22;43480;53.116;6.734;2024-02-15T07:42:33;11.80;99.90
57652;DHT22;43480;53.116;6.734;2024-02-15T07:45:00;11.80;99.90
57652;DHT22;43480;53.116;6.734;2024-02-15T07:47:26;11.80;99.90
57652;DHT22;43480;53.116;6.734;2024-02-15T07:49:52;11.80;99.90
57652;DHT22;43480;53.116;6.734;2024-02-15T07:52:18;11.80;99.90
57652;DHT22;43480;53.116;6.734;2024-02-15T07:54:44;11.80;99.90
57652;DHT22;43480;53.116;6.734;2024-02-15T07:57:10;11.80;99.90
57652;DHT22;43480;53.116;6.734;2024-02-15T07:59:36;11.80;99.90
57652;DHT22;43480;53.116;6.734;2024-02-15T08:02:05;11.80;99.90
57652;DHT22;43480;53.116;6.734;2024-02-15T08:04:30;11.80;99.90
57652;DHT22;43480;53.116;6.734;2024-02-15T08:06:56;11.80;99.90
57652;DHT22;43480;53.116;6.734;2024-02-15T08:09:22;11.80;99.90
57652;DHT22;43480;53.116;6.734;2024-02-15T08:11:50;11.80;99.90
57652;DHT22;43480;53.116;6.734;2024-02-15T08:14:16;11.80;99.90
57652;DHT22;43480;53.116;6.734;2024-02-15T08:16:42;11.80;99.90
57652;DHT22;43480;53.116;6.734;2024-02-15T08:19:07;11.90;99.90
57652;DHT22;43480;53.116;6.734;2024-02-15T08:21:34;11.90;99.90
57652;DHT22;43480;53.116;6.734;2024-02-15T08:24:02;11.90;99.90
57652;DHT22;43480;53.116;6.734;2024-02-15T08:26:38;11.90;99.90
57652;DHT22;43480;53.116;6.734;2024-02-15T08:29:04;11.80;99.90
57652;DHT22;43480;53.116;6.734;2024-02-15T08:31:30;11.90;99.90
57652;DHT22;43480;53.116;6.734;2024-02-15T08:33:57;11.90;99.90
57652;DHT22;43480;53.116;6.734;2024-02-15T08:36:23;11.90;99.90
57652;DHT22;43480;53.116;6.734;2024-02-15T08:38:49;11.90;99.90
57652;DHT22;43480;53.116;6.734;2024-02-15T08:41:15;11.90;99.90
57652;DHT22;43480;53.116;6.734;2024-02-15T08:43:44;11.90;99.90
57652;DHT22;43480;53.116;6.734;2024-02-15T08:46:09;11.90;99.90
57652;DHT22;43480;53.116;6.734;2024-02-15T08:48:38;11.90;99.90
57652;DHT22;43480;53.116;6.734;2024-02-15T08:51:04;11.90;99.90
57652;DHT22;43480;53.116;6.734;2024-02-15T08:53:31;11.90;99.90
57652;DHT22;43480;53.116;6.734;2024-02-15T08:55:57;11.90;99.90
57652;DHT22;43480;53.116;6.734;2024-02-15T08:58:23;11.90;99.90
57652;DHT22;43480;53.116;6.734;2024-02-15T09:00:49;11.90;99.90
57652;DHT22;43480;53.116;6.734;2024-02-15T09:03:14;12.00;99.90
57652;DHT22;43480;53.116;6.734;2024-02-15T09:05:40;12.00;99.90
57652;DHT22;43480;53.116;6.734;2024-02-15T09:08:06;12.00;99.90
57652;DHT22;43480;53.116;6.734;2024-02-15T09:10:32;12.00;99.90
57652;DHT22;43480;53.116;6.734;2024-02-15T09:12:58;12.00;99.90
57652;DHT22;43480;53.116;6.734;2024-02-15T09:15:24;12.00;99.90
57652;DHT22;43480;53.116;6.734;2024-02-15T09:17:50;12.00;99.90
57652;DHT22;43480;53.116;6.734;2024-02-15T09:20:17;12.00;99.90
57652;DHT22;43480;53.116;6.734;2024-02-15T09:22:50;12.00;99.90
57652;DHT22;43480;53.116;6.734;2024-02-15T09:25:16;12.10;99.90
57652;DHT22;43480;53.116;6.734;2024-02-15T09:27:42;12.00;99.90
57652;DHT22;43480;53.116;6.734;2024-02-15T09:30:09;12.00;99.90
57652;DHT22;43480;53.116;6.734;2024-02-15T09:32:36;12.00;99.90
57652;DHT22;43480;53.116;6.734;2024-02-15T09:35:02;12.00;99.90
57652;DHT22;43480;53.116;6.734;2024-02-15T09:37:28;12.00;99.90
57652;DHT22;43480;53.116;6.734;2024-02-15T09:39:54;12.10;99.90
57652;DHT22;43480;53.116;6.734;2024-02-15T09:42:24;12.10;99.90
57652;DHT22;43480;53.116;6.734;2024-02-15T09:44:51;12.10;99.90
57652;DHT22;43480;53.116;6.734;2024-02-15T09:47:18;12.10;99.90
57652;DHT22;43480;53.116;6.734;2024-02-15T09:49:44;12.20;99.90
57652;DHT22;43480;53.116;6.734;2024-02-15T09:52:10;12.20;99.90
57652;DHT22;43480;53.116;6.734;2024-02-15T09:54:40;12.20;99.90
57652;DHT22;43480;53.116;6.734;2024-02-15T09:57:10;12.30;99.90
57652;DHT22;43480;53.116;6.734;2024-02-15T09:59:37;12.30;99.90
57652;DHT22;43480;53.116;6.734;2024-02-15T10:02:03;12.30;99.90
57652;DHT22;43480;53.116;6.734;2024-02-15T10:04:29;12.40;99.90
57652;DHT22;43480;53.116;6.734;2024-02-15T10:06:54;12.40;99.90
57652;DHT22;43480;53.116;6.734;2024-02-15T10:09:27;12.50;99.90
57652;DHT22;43480;53.116;6.734;2024-02-15T10:11:57;12.50;99.90
57652;DHT22;43480;53.116;6.734;2024-02-15T10:14:24;12.50;99.90
57652;DHT22;43480;53.116;6.734;2024-02-15T10:16:54;12.60;99.90
57652;DHT22;43480;53.116;6.734;2024-02-15T10:19:21;12.60;99.90
57652;DHT22;43480;53.116;6.734;2024-02-15T10:22:09;12.60;99.90
57652;DHT22;43480;53.116;6.734;2024-02-15T10:24:35;12.70;99.90
57652;DHT22;43480;53.116;6.734;2024-02-15T10:27:03;12.70;99.90
57652;DHT22;43480;53.116;6.734;2024-02-15T10:29:30;12.70;99.90
57652;DHT22;43480;53.116;6.734;2024-02-15T10:31:59;12.80;99.90
57652;DHT22;43480;53.116;6.734;2024-02-15T10:34:25;12.80;99.90
57652;DHT22;43480;53.116;6.734;2024-02-15T10:37:13;12.80;99.90
57652;DHT22;43480;53.116;6.734;2024-02-15T10:39:39;12.80;99.90
57652;DHT22;43480;53.116;6.734;2024-02-15T10:42:06;12.90;99.90
57652;DHT22;43480;53.116;6.734;2024-02-15T10:44:32;12.90;99.90
57652;DHT22;43480;53.116;6.734;2024-02-15T10:47:02;12.90;99.90
57652;DHT22;43480;53.116;6.734;2024-02-15T10:49:33;12.90;99.90
57652;DHT22;43480;53.116;6.734;2024-02-15T10:52:00;12.90;99.90
57652;DHT22;43480;53.116;6.734;2024-02-15T10:55:04;13.00;99.90
57652;DHT22;43480;53.116;6.734;2024-02-15T10:57:38;13.10;99.90
57652;DHT22;43480;53.116;6.734;2024-02-15T11:00:06;13.10;99.90
57652;DHT22;43480;53.116;6.734;2024-02-15T11:02:44;13.10;99.90
57652;DHT22;43480;53.116;6.734;2024-02-15T11:05:12;13.10;99.90
57652;DHT22;43480;53.116;6.734;2024-02-15T11:07:40;13.10;99.90
57652;DHT22;43480;53.116;6.734;2024-02-15T11:10:09;13.10;99.90
57652;DHT22;43480;53.116;6.734;2024-02-15T11:12:37;13.00;99.90
57652;DHT22;43480;53.116;6.734;2024-02-15T11:15:03;13.00;99.90
57652;DHT22;43480;53.116;6.734;2024-02-15T11:23:09;13.10;99.90
57652;DHT22;43480;53.116;6.734;2024-02-15T11:25:38;13.00;99.90
57652;DHT22;43480;53.116;6.734;2024-02-15T11:28:36;13.10;99.90
57652;DHT22;43480;53.116;6.734;2024-02-15T11:31:06;13.20;99.90
57652;DHT22;43480;53.116;6.734;2024-02-15T11:33:33;13.20;99.90
57652;DHT22;43480;53.116;6.734;2024-02-15T11:38:28;13.30;99.90
57652;DHT22;43480;53.116;6.734;2024-02-15T11:46:13;13.30;99.90
57652;DHT22;43480;53.116;6.734;2024-02-15T11:48:39;13.40;99.90
57652;DHT22;43480;53.116;6.734;2024-02-15T11:51:05;13.40;99.90
57652;DHT22;43480;53.116;6.734;2024-02-15T11:53:32;13.40;99.90
57652;DHT22;43480;53.116;6.734;2024-02-15T11:56:01;13.40;99.90
57652;DHT22;43480;53.116;6.734;2024-02-15T11:58:28;13.40;99.90
57652;DHT22;43480;53.116;6.734;2024-02-15T12:01:14;13.40;99.90
57652;DHT22;43480;53.116;6.734;2024-02-15T12:03:59;13.30;99.90
57652;DHT22;43480;53.116;6.734;2024-02-15T12:06:43;13.30;99.90
57652;DHT22;43480;53.116;6.734;2024-02-15T12:09:28;13.30;99.90
57652;DHT22;43480;53.116;6.734;2024-02-15T12:12:12;13.30;99.90
57652;DHT22;43480;53.116;6.734;2024-02-15T12:15:00;13.30;99.90
57652;DHT22;43480;53.116;6.734;2024-02-15T12:17:44;13.30;99.90
57652;DHT22;43480;53.116;6.734;2024-02-15T12:20:29;13.30;99.90
57652;DHT22;43480;53.116;6.734;2024-02-15T12:22:54;13.30;99.90
57652;DHT22;43480;53.116;6.734;2024-02-15T12:25:20;13.30;99.90
57652;DHT22;43480;53.116;6.734;2024-02-15T12:27:52;13.20;99.90
57652;DHT22;43480;53.116;6.734;2024-02-15T12:30:18;13.20;99.90
57652;DHT22;43480;53.116;6.734;2024-02-15T12:32:48;13.20;99.90
57652;DHT22;43480;53.116;6.734;2024-02-15T12:35:19;13.20;99.90
57652;DHT22;43480;53.116;6.734;2024-02-15T12:38:06;13.20;99.90
57652;DHT22;43480;53.116;6.734;2024-02-15T12:40:38;13.20;99.90
57652;DHT22;43480;53.116;6.734;2024-02-15T12:43:06;13.10;99.90
57652;DHT22;43480;53.116;6.734;2024-02-15T12:45:39;13.10;99.90
57652;DHT22;43480;53.116;6.734;2024-02-15T12:48:05;13.10;99.90
57652;DHT22;43480;53.116;6.734;2024-02-15T12:50:32;13.20;99.90
57652;DHT22;43480;53.116;6.734;2024-02-15T12:52:58;13.10;99.90
57652;DHT22;43480;53.116;6.734;2024-02-15T12:55:39;13.10;99.90
57652;DHT22;43480;53.116;6.734;2024-02-15T12:58:12;13.10;99.90
57652;DHT22;43480;53.116;6.734;2024-02-15T13:00:39;13.00;99.90
57652;DHT22;43480;53.116;6.734;2024-02-15T13:03:06;13.00;99.90
57652;DHT22;43480;53.116;6.734;2024-02-15T13:05:36;13.00;99.90
57652;DHT22;43480;53.116;6.734;2024-02-15T13:08:03;13.00;99.90
57652;DHT22;43480;53.116;6.734;2024-02-15T13:10:31;13.00;99.90
57652;DHT22;43480;53.116;6.734;2024-02-15T13:12:57;13.00;99.90
57652;DHT22;43480;53.116;6.734;2024-02-15T13:15:24;13.00;99.90
57652;DHT22;43480;53.116;6.734;2024-02-15T13:17:56;13.00;99.90
57652;DHT22;43480;53.116;6.734;2024-02-15T13:20:23;13.00;99.90
57652;DHT22;43480;53.116;6.734;2024-02-15T13:23:03;13.00;99.90
57652;DHT22;43480;53.116;6.734;2024-02-15T13:25:37;13.00;99.90
57652;DHT22;43480;53.116;6.734;2024-02-15T13:28:05;13.00;99.90
57652;DHT22;43480;53.116;6.734;2024-02-15T13:30:34;13.00;99.90
57652;DHT22;43480;53.116;6.734;2024-02-15T13:33:01;13.00;99.90
57652;DHT22;43480;53.116;6.734;2024-02-15T13:35:27;13.00;99.90
57652;DHT22;43480;53.116;6.734;2024-02-15T13:37:54;13.00;99.90
57652;DHT22;43480;53.116;6.734;2024-02-15T13:40:23;13.00;99.90
57652;DHT22;43480;53.116;6.734;2024-02-15T13:42:50;12.90;99.90
57652;DHT22;43480;53.116;6.734;2024-02-15T13:45:23;12.90;99.90
57652;DHT22;43480;53.116;6.734;2024-02-15T13:47:50;12.90;99.90
57652;DHT22;43480;53.116;6.734;2024-02-15T13:50:16;12.90;99.90
57652;DHT22;43480;53.116;6.734;2024-02-15T13:52:44;12.80;99.90
57652;DHT22;43480;53.116;6.734;2024-02-15T13:55:13;12.80;99.90
57652;DHT22;43480;53.116;6.734;2024-02-15T13:57:44;12.80;99.90
57652;DHT22;43480;53.116;6.734;2024-02-15T14:00:12;12.80;99.90
57652;DHT22;43480;53.116;6.734;2024-02-15T14:02:40;12.80;99.90
57652;DHT22;43480;53.116;6.734;2024-02-15T14:05:07;12.90;99.90
57652;DHT22;43480;53.116;6.734;2024-02-15T14:07:37;12.90;99.90
57652;DHT22;43480;53.116;6.734;2024-02-15T14:10:05;12.90;99.90
57652;DHT22;43480;53.116;6.734;2024-02-15T14:12:31;12.90;99.90
57652;DHT22;43480;53.116;6.734;2024-02-15T14:14:57;12.90;99.90
57652;DHT22;43480;53.116;6.734;2024-02-15T14:17:22;12.90;99.90
57652;DHT22;43480;53.116;6.734;2024-02-15T14:19:49;12.90;99.90
57652;DHT22;43480;53.116;6.734;2024-02-15T14:22:14;13.00;99.90
57652;DHT22;43480;53.116;6.734;2024-02-15T14:24:44;13.00;99.90
57652;DHT22;43480;53.116;6.734;2024-02-15T14:27:11;13.00;99.90
57652;DHT22;43480;53.116;6.734;2024-02-15T14:29:37;13.00;99.90
57652;DHT22;43480;53.116;6.734;2024-02-15T14:32:11;13.00;99.90
57652;DHT22;43480;53.116;6.734;2024-02-15T14:34:55;12.90;99.90
57652;DHT22;43480;53.116;6.734;2024-02-15T14:37:22;13.00;99.90
57652;DHT22;43480;53.116;6.734;2024-02-15T14:39:48;12.90;99.90
57652;DHT22;43480;53.116;6.734;2024-02-15T14:42:13;12.90;99.90
57652;DHT22;43480;53.116;6.734;2024-02-15T14:44:39;12.90;99.90
57652;DHT22;43480;53.116;6.734;2024-02-15T14:47:05;12.90;99.90
57652;DHT22;43480;53.116;6.734;2024-02-15T14:49:31;12.90;99.90
57652;DHT22;43480;53.116;6.734;2024-02-15T14:51:57;13.00;99.90
57652;DHT22;43480;53.116;6.734;2024-02-15T14:54:22;13.00;99.90
57652;DHT22;43480;53.116;6.734;2024-02-15T14:56:48;13.00;99.90
57652;DHT22;43480;53.116;6.734;2024-02-15T14:59:13;13.00;99.90
57652;DHT22;43480;53.116;6.734;2024-02-15T15:01:40;13.00;99.90
57652;DHT22;43480;53.116;6.734;2024-02-15T15:04:06;12.90;99.90
57652;DHT22;43480;53.116;6.734;2024-02-15T15:06:34;12.90;99.90
57652;DHT22;43480;53.116;6.734;2024-02-15T15:09:18;12.90;99.90
57652;DHT22;43480;53.116;6.734;2024-02-15T15:12:03;12.90;99.90
57652;DHT22;43480;53.116;6.734;2024-02-15T15:14:47;12.90;99.90
57652;DHT22;43480;53.116;6.734;2024-02-15T15:17:13;12.90;99.90
57652;DHT22;43480;53.116;6.734;2024-02-15T15:19:41;12.90;99.90
57652;DHT22;43480;53.116;6.734;2024-02-15T15:22:07;12.90;99.90
57652;DHT22;43480;53.116;6.734;2024-02-15T15:24:33;13.00;99.90
57652;DHT22;43480;53.116;6.734;2024-02-15T15:26:59;13.00;99.90
57652;DHT22;43480;53.116;6.734;2024-02-15T15:29:25;13.00;99.90
57652;DHT22;43480;53.116;6.734;2024-02-15T15:31:51;13.00;99.90
57652;DHT22;43480;53.116;6.734;2024-02-15T15:34:17;13.00;99.90
57652;DHT22;43480;53.116;6.734;2024-02-15T15:36:45;13.00;99.90
57652;DHT22;43480;53.116;6.734;2024-02-15T15:39:15;13.00;99.90
57652;DHT22;43480;53.116;6.734;2024-02-15T15:41:44;13.00;99.90
57652;DHT22;43480;53.116;6.734;2024-02-15T15:44:10;13.10;99.90
57652;DHT22;43480;53.116;6.734;2024-02-15T15:46:35;13.00;99.90
57652;DHT22;43480;53.116;6.734;2024-02-15T15:49:01;13.00;99.90